Time;durP1;ratioP1;P1;durP2;ratioP2;P2;SDS_P1;SDS_P2;PMS_P1;PMS_P2;Temp;Humidity;BMP_temperature;BMP_pressure;BME280_temperature;BME280_humidity;BME280_pressure;Samples;Min_cycle;Max_cycle;Signal;HPM_P1;HPM_P2
2023/09/09 00:01:14;;;;;;;8.90;7.90;;;21.20;99.90;;;;;;5087329;28;20578;-79
2023/09/09 00:03:41;;;;;;;10.27;7.10;;;21.10;99.90;;;;;;5085508;28;20185;-85
2023/09/09 00:06:13;;;;;;;10.27;7.80;;;21.10;99.90;;;;;;5087194;28;20770;-84
2023/09/09 00:08:40;;;;;;;9.00;8.10;;;21.10;99.90;;;;;;5085980;28;20475;-80
2023/09/09 00:11:06;;;;;;;8.47;7.40;;;21.00;99.90;;;;;;5085800;28;20456;-85
2023/09/09 00:13:31;;;;;;;9.67;7.57;;;21.00;99.90;;;;;;5085393;28;20472;-85
2023/09/09 00:15:57;;;;;;;7.60;6.90;;;20.90;99.90;;;;;;5085842;28;20999;-81
2023/09/09 00:18:23;;;;;;;8.40;7.00;;;20.90;99.90;;;;;;5085383;28;20211;-85
2023/09/09 00:20:48;;;;;;;7.90;7.13;;;20.80;99.90;;;;;;5086931;28;20623;-85
2023/09/09 00:23:14;;;;;;;9.17;7.00;;;20.70;99.90;;;;;;5086845;28;20417;-80
2023/09/09 00:25:41;;;;;;;8.63;7.73;;;20.70;99.90;;;;;;5085531;28;20234;-85
2023/09/09 00:28:09;;;;;;;7.87;6.87;;;20.60;99.90;;;;;;5085191;28;20275;-85
2023/09/09 00:30:35;;;;;;;9.73;7.57;;;20.60;99.90;;;;;;5086802;28;20817;-85
2023/09/09 00:33:01;;;;;;;13.67;7.63;;;20.50;99.90;;;;;;5084008;28;20453;-85
2023/09/09 00:35:27;;;;;;;8.07;7.23;;;20.50;99.90;;;;;;5086927;28;20200;-81
2023/09/09 00:37:54;;;;;;;11.20;7.50;;;20.40;99.90;;;;;;5084829;28;20824;-80
2023/09/09 00:40:20;;;;;;;9.23;7.10;;;20.40;99.90;;;;;;5085325;28;21008;-80
2023/09/09 00:42:45;;;;;;;9.33;8.07;;;20.40;99.90;;;;;;5086586;28;20484;-83
2023/09/09 00:45:11;;;;;;;9.50;7.27;;;20.30;99.90;;;;;;5085464;28;20437;-80
2023/09/09 00:47:38;;;;;;;8.40;6.10;;;20.40;99.90;;;;;;5086323;28;20194;-80
2023/09/09 00:50:08;;;;;;;7.60;6.73;;;20.40;99.90;;;;;;5086300;28;20231;-85
2023/09/09 00:52:34;;;;;;;7.43;6.70;;;20.30;99.90;;;;;;5083757;28;20609;-80
2023/09/09 00:55:00;;;;;;;8.40;6.30;;;20.30;99.90;;;;;;5086127;28;20499;-85
2023/09/09 00:57:27;;;;;;;10.90;8.40;;;20.40;99.90;;;;;;5086104;28;20279;-81
2023/09/09 00:59:52;;;;;;;9.80;7.70;;;20.40;99.90;;;;;;5084849;28;20685;-81
2023/09/09 01:02:18;;;;;;;10.20;7.50;;;20.40;99.90;;;;;;5085965;28;20401;-80
2023/09/09 01:04:44;;;;;;;8.50;7.20;;;20.40;99.90;;;;;;5086380;28;20215;-85
2023/09/09 01:07:10;;;;;;;7.70;7.00;;;20.40;99.90;;;;;;5086085;28;20169;-83
2023/09/09 01:09:36;;;;;;;10.13;7.73;;;20.40;99.90;;;;;;5086630;28;20637;-84
2023/09/09 01:12:03;;;;;;;10.70;7.13;;;20.30;99.90;;;;;;5084466;28;20436;-80
2023/09/09 01:14:29;;;;;;;8.67;7.50;;;20.30;99.90;;;;;;5084783;28;20219;-80
2023/09/09 01:16:55;;;;;;;10.60;8.00;;;20.30;99.90;;;;;;5084733;28;20778;-86
2023/09/09 01:19:24;;;;;;;9.43;7.70;;;20.20;99.90;;;;;;5086245;28;20487;-81
2023/09/09 01:21:53;;;;;;;9.07;7.80;;;20.20;99.90;;;;;;5084612;28;20416;-80
2023/09/09 01:24:20;;;;;;;8.60;6.40;;;20.10;99.90;;;;;;5086271;28;20438;-80
2023/09/09 01:26:46;;;;;;;14.07;8.23;;;20.10;99.90;;;;;;5084711;28;20804;-80
2023/09/09 01:29:12;;;;;;;10.87;7.80;;;20.00;99.90;;;;;;5085561;28;20436;-80
2023/09/09 01:31:38;;;;;;;10.40;8.00;;;20.00;99.90;;;;;;5084655;28;20416;-80
2023/09/09 01:34:04;;;;;;;8.13;6.83;;;20.00;99.90;;;;;;5083867;28;21119;-84
2023/09/09 01:36:30;;;;;;;10.17;7.60;;;20.00;99.90;;;;;;5086371;28;20421;-85
2023/09/09 01:38:55;;;;;;;9.27;7.80;;;20.00;99.90;;;;;;5085630;28;20773;-84
2023/09/09 01:41:21;;;;;;;8.03;7.13;;;20.00;99.90;;;;;;5085776;28;20432;-80
2023/09/09 01:43:46;;;;;;;8.80;7.90;;;20.00;99.90;;;;;;5084244;28;20282;-84
2023/09/09 01:46:12;;;;;;;7.73;6.90;;;19.90;99.90;;;;;;5090112;28;20184;-84
2023/09/09 01:48:38;;;;;;;8.63;7.80;;;19.90;99.90;;;;;;5089474;28;20212;-85
2023/09/09 01:51:03;;;;;;;10.40;7.93;;;19.80;99.90;;;;;;5088650;28;20679;-86
2023/09/09 01:53:29;;;;;;;9.50;8.50;;;19.70;99.90;;;;;;5087415;28;20277;-80
2023/09/09 01:55:58;;;;;;;10.70;7.87;;;19.60;99.90;;;;;;5089802;28;20553;-80
2023/09/09 01:58:24;;;;;;;8.30;7.00;;;19.60;99.90;;;;;;5087925;28;20274;-85
2023/09/09 02:00:50;;;;;;;9.00;6.87;;;19.60;99.90;;;;;;5089506;28;20424;-80
2023/09/09 02:03:16;;;;;;;9.27;8.20;;;19.60;99.90;;;;;;5087850;28;20501;-84
2023/09/09 02:05:41;;;;;;;11.80;8.90;;;19.50;99.90;;;;;;5087892;28;20443;-80
2023/09/09 02:08:07;;;;;;;11.10;7.60;;;19.50;99.90;;;;;;5088031;28;20183;-85
2023/09/09 02:10:33;;;;;;;9.07;7.60;;;19.50;99.90;;;;;;5088382;28;20402;-80
2023/09/09 02:12:58;;;;;;;7.50;6.80;;;19.50;99.90;;;;;;5089235;28;20283;-80
2023/09/09 02:15:24;;;;;;;9.37;8.10;;;19.50;99.90;;;;;;5089552;28;20199;-80
2023/09/09 02:17:50;;;;;;;12.73;7.13;;;19.40;99.90;;;;;;5087883;28;20275;-84
2023/09/09 02:20:16;;;;;;;10.70;8.47;;;19.50;99.90;;;;;;5089934;28;20504;-82
2023/09/09 02:22:41;;;;;;;9.80;7.83;;;19.40;99.90;;;;;;5087970;28;20172;-80
2023/09/09 02:25:08;;;;;;;9.00;7.70;;;19.40;99.90;;;;;;5089172;28;20200;-79
2023/09/09 02:27:34;;;;;;;12.17;8.60;;;19.40;99.90;;;;;;5088800;28;20173;-81
2023/09/09 02:30:01;;;;;;;7.90;7.10;;;19.40;99.90;;;;;;5089153;28;20456;-80
2023/09/09 02:32:26;;;;;;;8.73;7.40;;;19.40;99.90;;;;;;5087424;28;20421;-80
2023/09/09 02:34:52;;;;;;;10.03;9.00;;;19.40;99.90;;;;;;5088973;28;20487;-84
2023/09/09 02:37:23;;;;;;;9.37;8.17;;;19.30;99.90;;;;;;5088795;28;20181;-83
2023/09/09 02:39:50;;;;;;;8.40;7.07;;;19.30;99.90;;;;;;5088815;28;20695;-85
2023/09/09 02:42:21;;;;;;;7.90;7.10;;;19.30;99.90;;;;;;5087614;28;20401;-85
2023/09/09 02:44:49;;;;;;;12.37;7.23;;;19.30;99.90;;;;;;5087665;28;20446;-84
2023/09/09 02:47:15;;;;;;;11.83;7.80;;;19.20;99.90;;;;;;5088480;28;20423;-84
2023/09/09 02:49:41;;;;;;;9.17;7.63;;;19.30;99.90;;;;;;5087337;28;20479;-83
2023/09/09 02:52:07;;;;;;;11.63;8.33;;;19.20;99.90;;;;;;5088552;28;20525;-79
2023/09/09 02:54:34;;;;;;;9.87;7.93;;;19.20;99.90;;;;;;5086492;28;20649;-80
2023/09/09 02:57:00;;;;;;;10.20;8.60;;;19.20;99.90;;;;;;5086687;28;20420;-80
2023/09/09 02:59:26;;;;;;;8.63;7.77;;;19.20;99.90;;;;;;5087222;28;20431;-84
2023/09/09 03:01:51;;;;;;;9.80;8.10;;;19.20;99.90;;;;;;5087194;28;20444;-81
2023/09/09 03:04:19;;;;;;;13.23;8.57;;;19.20;99.90;;;;;;5087300;28;20188;-80
2023/09/09 03:06:45;;;;;;;10.10;7.87;;;19.20;99.90;;;;;;5088677;28;20182;-84
2023/09/09 03:09:13;;;;;;;8.90;8.00;;;19.20;99.90;;;;;;5088179;28;20430;-83
2023/09/09 03:11:39;;;;;;;13.20;7.93;;;19.20;99.90;;;;;;5088464;28;20485;-80
2023/09/09 03:14:04;;;;;;;10.80;8.10;;;19.20;99.90;;;;;;5086457;28;21019;-83
2023/09/09 03:16:30;;;;;;;8.37;7.00;;;19.10;99.90;;;;;;5088338;28;20415;-80
2023/09/09 03:18:56;;;;;;;11.17;7.97;;;19.10;99.90;;;;;;5086478;28;20248;-85
2023/09/09 03:21:21;;;;;;;9.27;7.90;;;19.10;99.90;;;;;;5088311;28;20191;-80
2023/09/09 03:23:47;;;;;;;10.23;8.10;;;19.00;99.90;;;;;;5087987;28;20400;-80
2023/09/09 03:26:18;;;;;;;12.97;9.07;;;19.00;99.90;;;;;;5087000;28;20430;-80
2023/09/09 03:28:45;;;;;;;9.67;8.00;;;19.00;99.90;;;;;;5086403;28;20257;-79
2023/09/09 03:31:11;;;;;;;10.23;8.50;;;18.90;99.90;;;;;;5086461;28;20427;-83
2023/09/09 03:33:37;;;;;;;11.87;8.60;;;18.90;99.90;;;;;;5087442;28;20874;-80
2023/09/09 03:36:03;;;;;;;9.73;8.07;;;18.80;99.90;;;;;;5087957;28;20202;-84
2023/09/09 03:38:29;;;;;;;13.70;9.30;;;18.80;99.90;;;;;;5086385;28;20417;-80
2023/09/09 03:40:55;;;;;;;11.40;9.27;;;18.70;99.90;;;;;;5086305;28;20676;-80
2023/09/09 03:43:20;;;;;;;12.43;8.87;;;18.70;99.90;;;;;;5086199;28;20433;-80
2023/09/09 03:45:46;;;;;;;10.07;9.07;;;18.60;99.90;;;;;;5086265;28;20374;-80
2023/09/09 03:48:12;;;;;;;12.67;9.30;;;18.60;99.90;;;;;;5086086;28;20186;-85
2023/09/09 03:50:37;;;;;;;10.00;9.00;;;18.50;99.90;;;;;;5088069;28;20319;-84
2023/09/09 03:53:03;;;;;;;12.17;7.97;;;18.50;99.90;;;;;;5087214;28;20216;-83
2023/09/09 03:55:29;;;;;;;13.37;8.77;;;18.50;99.90;;;;;;5087366;28;20200;-80
2023/09/09 03:57:55;;;;;;;11.30;8.60;;;18.40;99.90;;;;;;5085140;28;20177;-80
2023/09/09 04:00:21;;;;;;;14.10;10.43;;;18.40;99.90;;;;;;5086124;28;20430;-84
2023/09/09 04:02:46;;;;;;;12.80;9.13;;;18.40;99.90;;;;;;5085811;28;20181;-80
2023/09/09 04:05:12;;;;;;;11.50;9.37;;;18.40;99.90;;;;;;5086063;28;20202;-80
2023/09/09 04:07:40;;;;;;;11.70;8.90;;;18.40;99.90;;;;;;5085096;28;20187;-80
2023/09/09 04:10:06;;;;;;;11.47;8.67;;;18.40;99.90;;;;;;5087343;28;20855;-85
2023/09/09 04:12:32;;;;;;;20.50;9.67;;;18.40;99.90;;;;;;5087224;28;20434;-80
2023/09/09 04:14:58;;;;;;;11.90;9.10;;;18.40;99.90;;;;;;5085469;28;20592;-85
2023/09/09 04:17:23;;;;;;;12.33;9.40;;;18.40;99.90;;;;;;5087207;28;20528;-82
2023/09/09 04:19:49;;;;;;;14.33;9.53;;;18.40;99.90;;;;;;5085585;28;20210;-84
2023/09/09 04:22:15;;;;;;;11.80;8.77;;;18.40;99.90;;;;;;5086658;28;20174;-80
2023/09/09 04:24:40;;;;;;;12.60;9.33;;;18.30;99.90;;;;;;5087190;28;20193;-85
2023/09/09 04:27:06;;;;;;;9.83;7.90;;;18.40;99.90;;;;;;5085046;28;20671;-80
2023/09/09 04:29:32;;;;;;;12.13;9.03;;;18.30;99.90;;;;;;5085456;28;20192;-80
2023/09/09 04:31:58;;;;;;;13.57;9.40;;;18.30;99.90;;;;;;5085182;28;20206;-80
2023/09/09 04:34:24;;;;;;;11.37;9.30;;;18.30;99.90;;;;;;5085142;28;20255;-80
2023/09/09 04:36:50;;;;;;;10.07;8.83;;;18.20;99.90;;;;;;5084905;28;20943;-80
2023/09/09 04:39:15;;;;;;;13.20;9.53;;;18.20;99.90;;;;;;5086816;28;20223;-80
2023/09/09 04:41:42;;;;;;;12.50;9.20;;;18.20;99.90;;;;;;5086586;28;20176;-81
2023/09/09 04:44:09;;;;;;;10.57;9.47;;;18.20;99.90;;;;;;5085043;28;20177;-81
2023/09/09 04:46:35;;;;;;;13.10;9.50;;;18.30;99.90;;;;;;5085399;28;20434;-80
2023/09/09 04:49:00;;;;;;;14.27;9.93;;;18.30;99.90;;;;;;5084661;28;20860;-85
2023/09/09 04:51:26;;;;;;;11.53;9.93;;;18.40;99.90;;;;;;5087210;28;20651;-83
2023/09/09 04:53:52;;;;;;;10.97;9.87;;;18.40;99.90;;;;;;5086258;28;20355;-85
2023/09/09 04:56:20;;;;;;;11.07;9.23;;;18.40;99.90;;;;;;5085689;28;20226;-80
2023/09/09 04:58:45;;;;;;;14.10;10.13;;;18.50;99.90;;;;;;5086070;28;20478;-85
2023/09/09 05:01:11;;;;;;;12.33;9.57;;;18.50;99.90;;;;;;5084830;28;20439;-81
2023/09/09 05:03:36;;;;;;;12.23;9.63;;;18.50;99.90;;;;;;5084627;28;20187;-80
2023/09/09 05:06:02;;;;;;;11.03;9.07;;;18.50;99.90;;;;;;5084874;28;20232;-84
2023/09/09 05:08:28;;;;;;;10.60;9.10;;;18.60;99.90;;;;;;5086110;28;20607;-84
2023/09/09 05:10:53;;;;;;;13.10;9.23;;;18.60;99.90;;;;;;5085951;28;20597;-80
2023/09/09 05:13:19;;;;;;;11.90;9.63;;;18.60;99.90;;;;;;5085819;28;20252;-84
2023/09/09 05:15:46;;;;;;;14.53;9.93;;;18.60;99.90;;;;;;5084757;28;20196;-79
2023/09/09 05:18:12;;;;;;;10.27;9.17;;;18.70;99.90;;;;;;5084400;28;20242;-80
2023/09/09 05:20:38;;;;;;;13.40;9.80;;;18.70;99.90;;;;;;5086252;28;20435;-80
2023/09/09 05:23:04;;;;;;;9.77;8.10;;;18.80;99.90;;;;;;5084193;28;20176;-80
2023/09/09 05:25:29;;;;;;;11.70;9.03;;;18.80;99.90;;;;;;5084573;28;20820;-85
2023/09/09 05:27:55;;;;;;;10.10;8.40;;;18.90;99.90;;;;;;5084133;28;20509;-84
2023/09/09 05:30:21;;;;;;;12.77;9.93;;;18.90;99.90;;;;;;5086245;28;20321;-80
2023/09/09 05:32:46;;;;;;;10.93;9.40;;;18.90;99.90;;;;;;5085909;28;20167;-84
2023/09/09 05:35:12;;;;;;;14.67;10.70;;;19.00;99.90;;;;;;5086109;28;20837;-84
2023/09/09 05:37:39;;;;;;;12.53;10.43;;;19.10;99.90;;;;;;5084523;28;20187;-80
2023/09/09 05:40:06;;;;;;;12.57;10.10;;;19.10;99.90;;;;;;5084371;28;20455;-85
2023/09/09 05:42:31;;;;;;;11.30;10.10;;;19.20;99.90;;;;;;5084211;28;20423;-80
2023/09/09 05:44:57;;;;;;;12.80;10.40;;;19.30;99.90;;;;;;5085894;28;20998;-80
2023/09/09 05:47:23;;;;;;;11.20;10.00;;;19.40;99.90;;;;;;5084028;28;20178;-84
2023/09/09 05:49:49;;;;;;;12.50;10.77;;;19.50;99.90;;;;;;5084126;28;20624;-80
2023/09/09 05:52:14;;;;;;;11.50;9.87;;;19.60;99.90;;;;;;5085505;28;20330;-80
2023/09/09 05:54:41;;;;;;;13.47;9.93;;;19.60;99.90;;;;;;5085836;28;20219;-80
2023/09/09 05:57:08;;;;;;;13.23;10.83;;;19.80;99.90;;;;;;5082879;28;20198;-80
2023/09/09 05:59:34;;;;;;;14.17;10.83;;;19.90;99.90;;;;;;5084265;28;20443;-84
2023/09/09 06:02:00;;;;;;;10.80;9.70;;;20.00;99.90;;;;;;5085152;28;20430;-81
2023/09/09 06:04:25;;;;;;;12.43;10.50;;;20.10;99.90;;;;;;5085341;28;20700;-85
2023/09/09 06:06:51;;;;;;;12.03;9.43;;;20.30;99.90;;;;;;5085446;28;20179;-83
2023/09/09 06:09:17;;;;;;;10.93;9.00;;;20.40;99.90;;;;;;5067373;28;20181;-80
2023/09/09 06:11:42;;;;;;;12.00;9.90;;;20.50;99.90;;;;;;5084489;28;20222;-80
2023/09/09 06:14:08;;;;;;;10.97;8.93;;;20.60;99.90;;;;;;5085205;28;20285;-81
2023/09/09 06:16:34;;;;;;;10.53;9.40;;;20.70;99.90;;;;;;5085524;28;20191;-84
2023/09/09 06:19:00;;;;;;;11.00;9.17;;;20.80;99.90;;;;;;5083694;28;20197;-84
2023/09/09 06:21:26;;;;;;;10.60;9.07;;;20.90;99.90;;;;;;5085746;28;20468;-84
2023/09/09 06:23:51;;;;;;;11.20;8.37;;;21.00;99.90;;;;;;5083633;28;20505;-85
2023/09/09 06:26:17;;;;;;;11.00;8.90;;;21.10;99.90;;;;;;5085540;28;20740;-84
2023/09/09 06:28:43;;;;;;;9.70;8.70;;;21.20;99.90;;;;;;5084174;28;20314;-80
2023/09/09 06:31:08;;;;;;;11.93;8.53;;;21.30;99.90;;;;;;5087280;28;20692;-85
2023/09/09 06:33:34;;;;;;;13.57;8.57;;;21.40;99.90;;;;;;5088840;28;20708;-80
2023/09/09 06:36:00;;;;;;;12.13;8.97;;;21.40;99.90;;;;;;5088819;28;20288;-81
2023/09/09 06:38:25;;;;;;;9.70;8.70;;;21.50;99.90;;;;;;5087529;28;20578;-84
2023/09/09 06:40:51;;;;;;;9.37;8.40;;;21.60;99.90;;;;;;5089043;28;20222;-81
2023/09/09 06:43:19;;;;;;;9.50;8.20;;;21.70;99.90;;;;;;5088724;28;20403;-80
2023/09/09 06:45:45;;;;;;;9.80;7.50;;;21.80;99.90;;;;;;5087816;28;20211;-80
2023/09/09 06:48:16;;;;;;;8.90;7.90;;;21.80;99.90;;;;;;5087157;28;20444;-84
2023/09/09 06:50:48;;;;;;;7.33;6.60;;;21.90;99.90;;;;;;5086096;28;20576;-84
2023/09/09 06:53:15;;;;;;;10.30;8.60;;;22.10;99.90;;;;;;5086491;28;20565;-81
2023/09/09 06:55:43;;;;;;;9.10;7.53;;;22.20;99.90;;;;;;5086112;28;20536;-81
2023/09/09 06:58:09;;;;;;;8.47;7.60;;;22.30;99.90;;;;;;5085357;28;20793;-81
2023/09/09 07:00:35;;;;;;;9.50;7.83;;;22.40;99.90;;;;;;5088128;28;20429;-81
2023/09/09 07:03:01;;;;;;;9.83;7.80;;;22.50;99.90;;;;;;5087575;28;20244;-84
2023/09/09 07:05:27;;;;;;;9.83;7.77;;;22.60;99.90;;;;;;5086656;28;21020;-81
2023/09/09 07:07:52;;;;;;;10.87;8.43;;;22.70;99.90;;;;;;5088513;28;20166;-81
2023/09/09 07:10:18;;;;;;;10.00;7.70;;;22.80;99.90;;;;;;5088276;28;20430;-84
2023/09/09 07:12:44;;;;;;;8.97;7.80;;;22.90;99.90;;;;;;5085304;28;20204;-84
2023/09/09 07:15:09;;;;;;;10.73;7.80;;;23.00;99.90;;;;;;5085263;28;20694;-84
2023/09/09 07:17:35;;;;;;;8.20;7.37;;;23.20;99.90;;;;;;5085161;28;20181;-83
2023/09/09 07:20:01;;;;;;;8.83;7.90;;;23.30;99.90;;;;;;5085158;28;20560;-83
2023/09/09 07:22:27;;;;;;;9.47;7.90;;;23.40;99.90;;;;;;5085347;28;20261;-81
2023/09/09 07:24:52;;;;;;;8.93;7.70;;;23.50;99.90;;;;;;5084971;28;20466;-84
2023/09/09 07:27:18;;;;;;;8.37;7.40;;;23.50;99.90;;;;;;5086305;28;20181;-84
2023/09/09 07:29:44;;;;;;;9.43;8.10;;;23.70;99.90;;;;;;5087099;28;20207;-84
2023/09/09 07:32:09;;;;;;;8.67;7.50;;;23.80;99.90;;;;;;5087614;28;20179;-81
2023/09/09 07:34:35;;;;;;;9.00;7.57;;;23.90;99.90;;;;;;5086736;28;20738;-80
2023/09/09 07:37:01;;;;;;;8.00;6.67;;;24.10;99.90;;;;;;5086070;28;20182;-80
2023/09/09 07:39:29;;;;;;;8.60;7.07;;;24.20;99.90;;;;;;5086783;28;20187;-84
2023/09/09 07:41:55;;;;;;;9.63;6.87;;;24.30;99.90;;;;;;5085062;28;20171;-85
2023/09/09 07:44:21;;;;;;;7.53;6.23;;;24.40;99.90;;;;;;5086571;28;20443;-81
2023/09/09 07:46:47;;;;;;;8.37;6.63;;;24.50;99.90;;;;;;5086636;28;20186;-82
2023/09/09 07:49:13;;;;;;;9.03;8.03;;;24.70;99.90;;;;;;5085630;28;20235;-84
2023/09/09 07:51:39;;;;;;;7.27;6.57;;;24.70;99.90;;;;;;5086297;28;20413;-80
2023/09/09 07:54:04;;;;;;;7.37;5.93;;;24.90;99.90;;;;;;5087262;28;20476;-84
2023/09/09 07:56:30;;;;;;;8.63;7.33;;;25.00;99.90;;;;;;5086360;28;20200;-80
2023/09/09 07:58:56;;;;;;;7.00;6.30;;;25.20;99.90;;;;;;5085071;28;20211;-84
2023/09/09 08:01:21;;;;;;;6.37;5.40;;;25.30;99.90;;;;;;5087444;28;20196;-81
2023/09/09 08:03:47;;;;;;;8.60;6.87;;;25.40;99.90;;;;;;5085739;28;20274;-84
2023/09/09 08:06:13;;;;;;;6.57;5.93;;;25.50;99.90;;;;;;5086006;28;20411;-80
2023/09/09 08:08:38;;;;;;;7.93;7.20;;;25.60;99.90;;;;;;5085956;28;20208;-80
2023/09/09 08:11:04;;;;;;;6.27;5.70;;;25.70;99.90;;;;;;5085946;28;20195;-84
2023/09/09 08:13:30;;;;;;;6.37;5.70;;;25.80;99.90;;;;;;5087139;28;20618;-80
2023/09/09 08:16:00;;;;;;;7.23;5.80;;;25.90;99.90;;;;;;5087083;28;20421;-83
2023/09/09 08:18:26;;;;;;;6.33;5.47;;;26.00;99.90;;;;;;5085356;28;20425;-84
2023/09/09 08:20:52;;;;;;;5.97;5.47;;;26.20;99.90;;;;;;5086967;28;20428;-84
2023/09/09 08:23:18;;;;;;;6.50;5.80;;;26.30;99.90;;;;;;5086865;28;20270;-84
2023/09/09 08:25:44;;;;;;;6.90;5.60;;;26.40;99.90;;;;;;5087216;28;20433;-84
2023/09/09 08:28:09;;;;;;;6.90;5.47;;;26.60;99.90;;;;;;5086588;28;20477;-84
2023/09/09 08:30:35;;;;;;;6.10;5.50;;;26.80;99.90;;;;;;5085692;28;20428;-80
2023/09/09 08:33:01;;;;;;;5.67;5.17;;;27.10;99.90;;;;;;5086380;28;20251;-84
2023/09/09 08:35:29;;;;;;;6.83;5.77;;;27.70;99.60;;;;;;5085779;28;20201;-84
2023/09/09 08:37:55;;;;;;;5.73;5.23;;;28.50;99.20;;;;;;5086252;28;20169;-84
2023/09/09 08:40:21;;;;;;;5.70;5.20;;;29.20;98.50;;;;;;5085478;28;20439;-80
2023/09/09 08:43:14;;;;;;;8.13;6.13;;;29.70;97.80;;;;;;5085268;28;20658;-83
2023/09/09 08:45:56;;;;;;;5.70;5.20;;;30.50;96.90;;;;;;5086924;28;20211;-84
2023/09/09 08:48:23;;;;;;;6.73;5.93;;;31.00;96.30;;;;;;5086274;28;20899;-80
2023/09/09 08:50:51;;;;;;;6.20;5.43;;;31.40;95.50;;;;;;5085274;28;20471;-84
2023/09/09 08:53:17;;;;;;;5.07;4.67;;;31.50;94.80;;;;;;5083972;28;20461;-80
2023/09/09 08:55:43;;;;;;;6.33;5.73;;;31.30;94.50;;;;;;5080730;28;20439;-84
2023/09/09 08:58:09;;;;;;;6.10;5.50;;;31.20;94.40;;;;;;5083917;28;20796;-83
2023/09/09 09:00:37;;;;;;;8.63;5.47;;;30.90;94.20;;;;;;5084522;28;20452;-81
2023/09/09 09:03:04;;;;;;;5.40;4.90;;;30.80;94.20;;;;;;5084363;28;20735;-84
2023/09/09 09:05:31;;;;;;;5.13;4.63;;;30.50;94.20;;;;;;5083924;28;20446;-85
2023/09/09 09:07:57;;;;;;;6.10;5.50;;;30.40;94.00;;;;;;5084588;28;20646;-81
2023/09/09 09:10:23;;;;;;;5.60;5.10;;;30.30;94.10;;;;;;5083966;28;20444;-84
2023/09/09 09:12:49;;;;;;;5.50;5.00;;;30.20;93.90;;;;;;5084098;28;20419;-84
2023/09/09 09:15:15;;;;;;;5.93;5.40;;;30.10;94.10;;;;;;5085541;28;20234;-80
2023/09/09 09:17:44;;;;;;;5.97;5.43;;;30.10;93.80;;;;;;5085964;28;20188;-81
2023/09/09 09:20:31;;;;;;;5.30;4.80;;;30.00;93.80;;;;;;5086030;28;20541;-80
2023/09/09 09:23:02;;;;;;;5.67;5.17;;;29.90;93.80;;;;;;5083563;28;20433;-80
2023/09/09 09:25:34;;;;;;;5.20;4.70;;;29.80;93.80;;;;;;5086094;28;20424;-81
2023/09/09 09:28:02;;;;;;;6.10;5.50;;;29.70;93.70;;;;;;5085056;28;20435;-84
2023/09/09 09:30:29;;;;;;;5.33;4.93;;;29.70;93.50;;;;;;5086017;28;20432;-85
2023/09/09 09:32:55;;;;;;;5.60;5.10;;;29.50;93.90;;;;;;5085246;28;20398;-80
2023/09/09 09:35:23;;;;;;;5.27;4.87;;;29.40;94.10;;;;;;5085725;28;21002;-80
2023/09/09 09:37:59;;;;;;;5.43;5.00;;;29.40;93.80;;;;;;5078389;28;20420;-80
2023/09/09 09:40:26;;;;;;;5.73;5.20;;;29.30;94.10;;;;;;5083948;28;20493;-81
2023/09/09 09:42:52;;;;;;;6.60;4.90;;;29.30;93.80;;;;;;5084759;28;20413;-83
2023/09/09 09:45:25;;;;;;;5.47;4.97;;;29.40;93.90;;;;;;5083723;28;20469;-84
2023/09/09 09:47:51;;;;;;;5.50;5.00;;;29.40;93.80;;;;;;5082245;28;20416;-81
2023/09/09 09:50:30;;;;;;;5.87;5.27;;;29.30;93.70;;;;;;5082608;28;20474;-84
2023/09/09 09:53:03;;;;;;;5.57;5.07;;;29.30;93.90;;;;;;5083619;28;20578;-80
2023/09/09 09:55:31;;;;;;;4.67;4.27;;;29.30;93.10;;;;;;5082631;28;20709;-80
2023/09/09 09:57:59;;;;;;;5.60;5.10;;;29.30;93.70;;;;;;5083551;28;20404;-81
2023/09/09 10:00:26;;;;;;;5.43;4.93;;;29.20;94.10;;;;;;5083307;28;20840;-81
2023/09/09 10:02:57;;;;;;;6.03;5.40;;;29.20;93.90;;;;;;5083836;28;20419;-80
2023/09/09 10:05:28;;;;;;;5.30;4.80;;;29.20;93.70;;;;;;5084742;28;20434;-84
2023/09/09 10:08:03;;;;;;;4.63;4.23;;;29.20;93.60;;;;;;5089715;28;20935;-84
2023/09/09 10:10:33;;;;;;;4.40;4.00;;;29.20;94.00;;;;;;5089829;28;20456;-81
2023/09/09 10:13:09;;;;;;;4.77;4.27;;;29.20;93.80;;;;;;5089030;28;20685;-81
2023/09/09 10:15:36;;;;;;;4.87;4.47;;;29.20;93.20;;;;;;5089694;28;20448;-81
2023/09/09 10:18:03;;;;;;;6.63;5.40;;;29.20;93.70;;;;;;5087706;28;20407;-80
2023/09/09 10:20:30;;;;;;;6.50;5.40;;;29.10;93.90;;;;;;5087852;28;20722;-81
2023/09/09 10:22:59;;;;;;;4.60;4.20;;;29.10;94.00;;;;;;5087977;28;20946;-84
2023/09/09 10:25:32;;;;;;;5.30;4.87;;;29.10;93.80;;;;;;5089686;28;20818;-81
2023/09/09 10:27:57;;;;;;;4.87;4.47;;;29.10;94.10;;;;;;5089123;28;20471;-83
2023/09/09 10:30:24;;;;;;;6.57;4.50;;;29.10;93.80;;;;;;5089474;28;20463;-85
2023/09/09 10:32:50;;;;;;;5.30;4.80;;;29.20;93.30;;;;;;5089098;28;20406;-84
2023/09/09 10:35:17;;;;;;;4.93;4.43;;;29.20;93.50;;;;;;5089503;28;20992;-83
2023/09/09 10:37:46;;;;;;;4.83;4.43;;;29.20;93.50;;;;;;5087519;28;20435;-80
2023/09/09 10:40:12;;;;;;;6.33;4.27;;;29.20;93.70;;;;;;5089138;28;20486;-80
2023/09/09 10:42:41;;;;;;;4.53;4.13;;;29.20;93.80;;;;;;5088901;28;20926;-83
2023/09/09 10:45:30;;;;;;;4.50;4.10;;;29.20;92.80;;;;;;5089367;28;20464;-84
2023/09/09 10:48:03;;;;;;;4.70;4.30;;;29.20;93.90;;;;;;5087301;28;20784;-80
2023/09/09 10:50:43;;;;;;;5.10;4.60;;;29.20;94.00;;;;;;5088703;28;20493;-85
2023/09/09 10:53:30;;;;;;;5.37;4.87;;;29.20;93.60;;;;;;5087078;28;20962;-84
2023/09/09 10:56:01;;;;;;;5.27;4.83;;;29.20;93.80;;;;;;5088813;28;20420;-85
2023/09/09 10:58:33;;;;;;;5.47;4.97;;;29.30;93.80;;;;;;5088515;28;20436;-85
2023/09/09 11:00:59;;;;;;;5.30;4.80;;;29.30;93.50;;;;;;5087470;28;20797;-80
2023/09/09 11:03:35;;;;;;;4.60;4.20;;;29.50;90.70;;;;;;5086932;28;20421;-81
2023/09/09 11:06:04;;;;;;;6.13;5.63;;;29.50;90.80;;;;;;5086472;28;20430;-82
2023/09/09 11:08:35;;;;;;;5.30;4.63;;;29.50;92.50;;;;;;5088261;28;20424;-81
2023/09/09 11:11:07;;;;;;;5.57;5.07;;;29.50;92.80;;;;;;5088508;28;20982;-84
2023/09/09 11:13:50;;;;;;;5.33;4.83;;;29.50;92.60;;;;;;5088199;28;20475;-80
2023/09/09 11:16:27;;;;;;;5.43;4.40;;;29.50;93.10;;;;;;5086852;28;20479;-84
2023/09/09 11:18:54;;;;;;;4.77;4.43;;;29.50;92.60;;;;;;5086111;28;20477;-80
2023/09/09 11:21:23;;;;;;;4.90;4.30;;;29.50;93.00;;;;;;5086655;28;20891;-80
2023/09/09 11:23:52;;;;;;;4.87;4.40;;;29.60;93.40;;;;;;5084963;28;20717;-82
2023/09/09 11:26:18;;;;;;;5.27;4.77;;;29.50;92.80;;;;;;5086016;28;20426;-80
2023/09/09 11:28:48;;;;;;;4.97;4.57;;;29.60;93.00;;;;;;5084520;28;20427;-84
2023/09/09 11:31:15;;;;;;;4.13;3.83;;;29.60;92.80;;;;;;5085092;28;20670;-80
2023/09/09 11:33:41;;;;;;;5.00;4.40;;;29.60;93.10;;;;;;5084626;28;21050;-80
2023/09/09 11:36:07;;;;;;;4.93;4.50;;;29.60;93.20;;;;;;5087022;28;20514;-80
2023/09/09 11:38:33;;;;;;;5.70;5.20;;;29.60;92.70;;;;;;5086073;28;20463;-80
2023/09/09 11:40:59;;;;;;;5.17;4.67;;;29.60;93.00;;;;;;5086677;28;20205;-84
2023/09/09 11:43:24;;;;;;;4.90;4.33;;;29.60;92.30;;;;;;5086384;28;20516;-84
2023/09/09 11:45:54;;;;;;;4.57;4.27;;;29.70;92.80;;;;;;5088145;28;20395;-80
2023/09/09 11:48:21;;;;;;;4.80;4.40;;;29.70;92.20;;;;;;5086228;28;20644;-85
2023/09/09 11:50:48;;;;;;;4.67;4.17;;;29.60;92.80;;;;;;5087985;28;20471;-84
2023/09/09 11:53:14;;;;;;;6.17;5.20;;;29.70;91.50;;;;;;5085427;28;20446;-81
2023/09/09 11:55:39;;;;;;;4.30;3.93;;;29.70;91.70;;;;;;5087766;28;20424;-81
2023/09/09 11:58:06;;;;;;;4.60;4.20;;;29.70;92.70;;;;;;5087074;28;20773;-80
2023/09/09 12:00:32;;;;;;;5.70;4.47;;;29.60;92.80;;;;;;5086073;28;20190;-84
2023/09/09 12:02:57;;;;;;;4.63;4.03;;;29.60;92.90;;;;;;5085746;28;20527;-85
2023/09/09 12:05:31;;;;;;;5.40;4.90;;;29.70;92.60;;;;;;5087408;28;20515;-83
2023/09/09 12:08:01;;;;;;;5.60;4.73;;;29.70;92.80;;;;;;5086397;28;20314;-84
2023/09/09 12:10:33;;;;;;;5.40;4.90;;;29.80;92.00;;;;;;5085897;28;20427;-81
2023/09/09 12:12:59;;;;;;;4.77;4.37;;;29.80;92.40;;;;;;5085370;28;20853;-81
2023/09/09 12:15:26;;;;;;;5.40;4.90;;;29.80;92.40;;;;;;5085806;28;20420;-85
2023/09/09 12:17:52;;;;;;;5.60;5.10;;;29.80;92.40;;;;;;5083789;28;20406;-80
2023/09/09 12:20:17;;;;;;;4.77;4.37;;;29.80;91.90;;;;;;5085405;28;20793;-80
2023/09/09 12:22:50;;;;;;;5.30;4.80;;;29.80;92.00;;;;;;5085425;28;20459;-84
2023/09/09 12:25:32;;;;;;;5.50;5.00;;;29.90;91.60;;;;;;5085637;28;20595;-80
2023/09/09 12:27:59;;;;;;;4.47;4.07;;;29.90;91.30;;;;;;5084184;28;20489;-84
2023/09/09 12:30:40;;;;;;;5.63;4.87;;;29.90;91.70;;;;;;5085644;28;20805;-81
2023/09/09 12:33:19;;;;;;;5.90;5.30;;;29.90;92.00;;;;;;5086913;28;20440;-80
2023/09/09 12:35:48;;;;;;;6.27;5.40;;;30.00;91.50;;;;;;5087056;28;20478;-84
2023/09/09 12:38:16;;;;;;;5.43;4.77;;;30.00;91.90;;;;;;5085023;28;20439;-84
2023/09/09 12:40:46;;;;;;;4.90;3.90;;;30.00;91.60;;;;;;5085264;28;21016;-84
2023/09/09 12:43:12;;;;;;;5.53;5.03;;;30.10;88.80;;;;;;5085418;28;20439;-81